sensor_id;sensor_type;location;lat;lon;timestamp;P1;durP1;ratioP1;P2;durP2;ratioP2
45198;SDS011;30941;46.422;18.772;2023-11-19T00:02:06;13.43;;;7.53;;
45198;SDS011;30941;46.422;18.772;2023-11-19T00:04:33;14.48;;;7.63;;
45198;SDS011;30941;46.422;18.772;2023-11-19T00:07:01;10.90;;;6.72;;
45198;SDS011;30941;46.422;18.772;2023-11-19T00:09:29;11.95;;;7.13;;
45198;SDS011;30941;46.422;18.772;2023-11-19T00:11:55;11.35;;;6.47;;
45198;SDS011;30941;46.422;18.772;2023-11-19T00:14:20;10.85;;;6.38;;
45198;SDS011;30941;46.422;18.772;2023-11-19T00:16:46;14.00;;;7.90;;
45198;SDS011;30941;46.422;18.772;2023-11-19T00:19:11;14.10;;;8.07;;
45198;SDS011;30941;46.422;18.772;2023-11-19T00:21:36;12.25;;;7.10;;
45198;SDS011;30941;46.422;18.772;2023-11-19T00:24:02;11.73;;;6.13;;
45198;SDS011;30941;46.422;18.772;2023-11-19T00:26:27;11.75;;;6.95;;
45198;SDS011;30941;46.422;18.772;2023-11-19T00:28:52;13.70;;;7.72;;
45198;SDS011;30941;46.422;18.772;2023-11-19T00:31:18;12.68;;;6.72;;
45198;SDS011;30941;46.422;18.772;2023-11-19T00:33:43;10.75;;;5.45;;
45198;SDS011;30941;46.422;18.772;2023-11-19T00:36:09;9.43;;;5.72;;
45198;SDS011;30941;46.422;18.772;2023-11-19T00:38:34;11.13;;;6.50;;
45198;SDS011;30941;46.422;18.772;2023-11-19T00:41:00;9.93;;;6.00;;
45198;SDS011;30941;46.422;18.772;2023-11-19T00:43:25;11.40;;;6.43;;
45198;SDS011;30941;46.422;18.772;2023-11-19T00:45:51;11.55;;;6.57;;
45198;SDS011;30941;46.422;18.772;2023-11-19T00:48:16;10.30;;;6.07;;
45198;SDS011;30941;46.422;18.772;2023-11-19T00:50:42;8.25;;;5.68;;
45198;SDS011;30941;46.422;18.772;2023-11-19T00:53:09;8.60;;;5.25;;
45198;SDS011;30941;46.422;18.772;2023-11-19T00:55:35;12.90;;;5.18;;
45198;SDS011;30941;46.422;18.772;2023-11-19T00:58:00;9.10;;;5.55;;
45198;SDS011;30941;46.422;18.772;2023-11-19T01:00:25;9.95;;;6.18;;
45198;SDS011;30941;46.422;18.772;2023-11-19T01:02:52;8.23;;;5.47;;
45198;SDS011;30941;46.422;18.772;2023-11-19T01:05:17;8.15;;;5.35;;
45198;SDS011;30941;46.422;18.772;2023-11-19T01:07:46;9.07;;;5.25;;
45198;SDS011;30941;46.422;18.772;2023-11-19T01:10:12;11.80;;;6.00;;
45198;SDS011;30941;46.422;18.772;2023-11-19T01:12:37;10.52;;;6.03;;
45198;SDS011;30941;46.422;18.772;2023-11-19T01:15:04;13.98;;;7.90;;
45198;SDS011;30941;46.422;18.772;2023-11-19T01:17:30;12.85;;;6.55;;
45198;SDS011;30941;46.422;18.772;2023-11-19T01:19:56;10.90;;;6.38;;
45198;SDS011;30941;46.422;18.772;2023-11-19T01:22:22;10.60;;;6.80;;
45198;SDS011;30941;46.422;18.772;2023-11-19T01:24:48;13.98;;;7.22;;
45198;SDS011;30941;46.422;18.772;2023-11-19T01:27:13;13.77;;;6.22;;
45198;SDS011;30941;46.422;18.772;2023-11-19T01:29:39;10.38;;;6.35;;
45198;SDS011;30941;46.422;18.772;2023-11-19T01:32:04;9.20;;;6.15;;
45198;SDS011;30941;46.422;18.772;2023-11-19T01:34:30;9.98;;;6.20;;
45198;SDS011;30941;46.422;18.772;2023-11-19T01:36:55;10.20;;;6.22;;
45198;SDS011;30941;46.422;18.772;2023-11-19T01:39:21;9.77;;;5.72;;
45198;SDS011;30941;46.422;18.772;2023-11-19T01:41:46;8.23;;;5.75;;
45198;SDS011;30941;46.422;18.772;2023-11-19T01:44:12;10.80;;;6.10;;
45198;SDS011;30941;46.422;18.772;2023-11-19T01:46:40;9.27;;;5.80;;
45198;SDS011;30941;46.422;18.772;2023-11-19T01:49:07;9.90;;;6.13;;
45198;SDS011;30941;46.422;18.772;2023-11-19T01:51:33;9.10;;;5.78;;
45198;SDS011;30941;46.422;18.772;2023-11-19T01:53:59;9.00;;;6.00;;
45198;SDS011;30941;46.422;18.772;2023-11-19T01:56:25;9.27;;;5.90;;
45198;SDS011;30941;46.422;18.772;2023-11-19T01:58:51;9.63;;;5.85;;
45198;SDS011;30941;46.422;18.772;2023-11-19T02:01:19;10.00;;;5.93;;
45198;SDS011;30941;46.422;18.772;2023-11-19T02:03:44;9.57;;;6.20;;
45198;SDS011;30941;46.422;18.772;2023-11-19T02:06:10;10.77;;;6.30;;
45198;SDS011;30941;46.422;18.772;2023-11-19T02:08:35;12.90;;;6.80;;
45198;SDS011;30941;46.422;18.772;2023-11-19T02:11:01;10.85;;;6.45;;
45198;SDS011;30941;46.422;18.772;2023-11-19T02:13:26;10.00;;;6.35;;
45198;SDS011;30941;46.422;18.772;2023-11-19T02:15:53;9.80;;;6.55;;
45198;SDS011;30941;46.422;18.772;2023-11-19T02:18:25;9.63;;;6.30;;
45198;SDS011;30941;46.422;18.772;2023-11-19T02:20:55;10.38;;;6.50;;
45198;SDS011;30941;46.422;18.772;2023-11-19T02:23:21;10.50;;;5.90;;
45198;SDS011;30941;46.422;18.772;2023-11-19T02:25:57;10.60;;;6.63;;
45198;SDS011;30941;46.422;18.772;2023-11-19T02:28:30;11.95;;;6.90;;
45198;SDS011;30941;46.422;18.772;2023-11-19T02:30:57;10.32;;;6.53;;
45198;SDS011;30941;46.422;18.772;2023-11-19T02:33:23;13.32;;;7.32;;
45198;SDS011;30941;46.422;18.772;2023-11-19T02:35:49;11.15;;;6.75;;
45198;SDS011;30941;46.422;18.772;2023-11-19T02:38:16;10.70;;;6.57;;
45198;SDS011;30941;46.422;18.772;2023-11-19T02:40:41;9.15;;;6.35;;
45198;SDS011;30941;46.422;18.772;2023-11-19T02:43:06;14.10;;;7.18;;
45198;SDS011;30941;46.422;18.772;2023-11-19T02:45:33;11.00;;;6.35;;
45198;SDS011;30941;46.422;18.772;2023-11-19T02:47:59;10.88;;;6.47;;
45198;SDS011;30941;46.422;18.772;2023-11-19T02:50:26;10.02;;;5.82;;
45198;SDS011;30941;46.422;18.772;2023-11-19T02:52:53;11.23;;;6.50;;
45198;SDS011;30941;46.422;18.772;2023-11-19T02:55:19;13.85;;;7.50;;
45198;SDS011;30941;46.422;18.772;2023-11-19T02:57:44;12.65;;;6.07;;
45198;SDS011;30941;46.422;18.772;2023-11-19T03:00:19;11.80;;;6.68;;
45198;SDS011;30941;46.422;18.772;2023-11-19T03:02:49;10.68;;;6.63;;
45198;SDS011;30941;46.422;18.772;2023-11-19T03:05:24;9.98;;;6.57;;
45198;SDS011;30941;46.422;18.772;2023-11-19T03:07:50;11.00;;;6.53;;
45198;SDS011;30941;46.422;18.772;2023-11-19T03:10:15;11.40;;;6.43;;
45198;SDS011;30941;46.422;18.772;2023-11-19T03:12:40;9.57;;;6.05;;
45198;SDS011;30941;46.422;18.772;2023-11-19T03:15:06;9.57;;;5.65;;
45198;SDS011;30941;46.422;18.772;2023-11-19T03:17:34;10.18;;;6.18;;
45198;SDS011;30941;46.422;18.772;2023-11-19T03:20:00;9.20;;;6.07;;
45198;SDS011;30941;46.422;18.772;2023-11-19T03:22:26;9.77;;;5.75;;
45198;SDS011;30941;46.422;18.772;2023-11-19T03:24:51;9.60;;;5.40;;
45198;SDS011;30941;46.422;18.772;2023-11-19T03:27:17;12.38;;;6.53;;
45198;SDS011;30941;46.422;18.772;2023-11-19T03:29:42;12.25;;;6.95;;
45198;SDS011;30941;46.422;18.772;2023-11-19T03:32:08;10.13;;;5.75;;
45198;SDS011;30941;46.422;18.772;2023-11-19T03:34:33;10.10;;;6.22;;
45198;SDS011;30941;46.422;18.772;2023-11-19T03:36:59;10.85;;;6.90;;
45198;SDS011;30941;46.422;18.772;2023-11-19T03:39:24;10.48;;;5.95;;
45198;SDS011;30941;46.422;18.772;2023-11-19T03:41:50;10.88;;;6.40;;
45198;SDS011;30941;46.422;18.772;2023-11-19T03:44:15;10.13;;;5.28;;
45198;SDS011;30941;46.422;18.772;2023-11-19T03:46:40;9.93;;;5.80;;
45198;SDS011;30941;46.422;18.772;2023-11-19T03:49:06;7.60;;;5.15;;
45198;SDS011;30941;46.422;18.772;2023-11-19T03:51:32;9.13;;;5.43;;
45198;SDS011;30941;46.422;18.772;2023-11-19T03:53:57;10.32;;;6.03;;
45198;SDS011;30941;46.422;18.772;2023-11-19T03:56:23;10.50;;;5.90;;
45198;SDS011;30941;46.422;18.772;2023-11-19T03:58:48;8.25;;;5.28;;
45198;SDS011;30941;46.422;18.772;2023-11-19T04:01:13;10.88;;;6.07;;
45198;SDS011;30941;46.422;18.772;2023-11-19T04:03:39;10.55;;;5.63;;
45198;SDS011;30941;46.422;18.772;2023-11-19T04:06:04;10.27;;;6.70;;
45198;SDS011;30941;46.422;18.772;2023-11-19T04:08:30;10.45;;;5.90;;
45198;SDS011;30941;46.422;18.772;2023-11-19T04:10:55;8.30;;;5.40;;
45198;SDS011;30941;46.422;18.772;2023-11-19T04:13:21;8.30;;;5.72;;
45198;SDS011;30941;46.422;18.772;2023-11-19T04:15:47;9.65;;;6.45;;
45198;SDS011;30941;46.422;18.772;2023-11-19T04:18:14;9.40;;;5.53;;
45198;SDS011;30941;46.422;18.772;2023-11-19T04:20:39;13.93;;;6.72;;
45198;SDS011;30941;46.422;18.772;2023-11-19T04:23:07;8.93;;;6.25;;
45198;SDS011;30941;46.422;18.772;2023-11-19T04:25:33;11.02;;;6.88;;
45198;SDS011;30941;46.422;18.772;2023-11-19T04:27:58;10.65;;;7.18;;
45198;SDS011;30941;46.422;18.772;2023-11-19T04:30:23;9.27;;;6.90;;
45198;SDS011;30941;46.422;18.772;2023-11-19T04:32:49;11.98;;;6.63;;
45198;SDS011;30941;46.422;18.772;2023-11-19T04:35:14;10.60;;;7.07;;
45198;SDS011;30941;46.422;18.772;2023-11-19T04:37:40;10.75;;;6.53;;
45198;SDS011;30941;46.422;18.772;2023-11-19T04:40:06;13.15;;;7.97;;
45198;SDS011;30941;46.422;18.772;2023-11-19T04:42:32;12.50;;;7.28;;
45198;SDS011;30941;46.422;18.772;2023-11-19T04:44:57;10.63;;;6.30;;
45198;SDS011;30941;46.422;18.772;2023-11-19T04:47:23;11.55;;;7.20;;
45198;SDS011;30941;46.422;18.772;2023-11-19T04:49:48;12.48;;;7.22;;
45198;SDS011;30941;46.422;18.772;2023-11-19T04:52:13;11.15;;;7.10;;
45198;SDS011;30941;46.422;18.772;2023-11-19T04:54:42;10.60;;;6.65;;
45198;SDS011;30941;46.422;18.772;2023-11-19T04:57:08;11.75;;;7.40;;
45198;SDS011;30941;46.422;18.772;2023-11-19T04:59:36;15.38;;;7.93;;
45198;SDS011;30941;46.422;18.772;2023-11-19T05:02:02;10.88;;;6.88;;
45198;SDS011;30941;46.422;18.772;2023-11-19T05:04:29;11.75;;;7.25;;
45198;SDS011;30941;46.422;18.772;2023-11-19T05:06:54;10.85;;;6.25;;
45198;SDS011;30941;46.422;18.772;2023-11-19T05:09:19;12.05;;;6.68;;
45198;SDS011;30941;46.422;18.772;2023-11-19T05:11:45;11.35;;;6.63;;
45198;SDS011;30941;46.422;18.772;2023-11-19T05:14:10;10.57;;;7.40;;
45198;SDS011;30941;46.422;18.772;2023-11-19T05:16:36;12.23;;;7.38;;
45198;SDS011;30941;46.422;18.772;2023-11-19T05:19:02;15.07;;;7.35;;
45198;SDS011;30941;46.422;18.772;2023-11-19T05:21:28;18.48;;;7.43;;
45198;SDS011;30941;46.422;18.772;2023-11-19T05:23:54;16.40;;;7.70;;
45198;SDS011;30941;46.422;18.772;2023-11-19T05:26:20;14.50;;;7.72;;
45198;SDS011;30941;46.422;18.772;2023-11-19T05:28:46;14.23;;;8.45;;
45198;SDS011;30941;46.422;18.772;2023-11-19T05:31:12;15.52;;;7.75;;
45198;SDS011;30941;46.422;18.772;2023-11-19T05:33:37;17.15;;;7.72;;
45198;SDS011;30941;46.422;18.772;2023-11-19T05:36:03;14.25;;;7.40;;
45198;SDS011;30941;46.422;18.772;2023-11-19T05:38:30;15.07;;;7.65;;
45198;SDS011;30941;46.422;18.772;2023-11-19T05:40:55;14.65;;;8.80;;
45198;SDS011;30941;46.422;18.772;2023-11-19T05:43:20;18.30;;;7.68;;
45198;SDS011;30941;46.422;18.772;2023-11-19T05:45:46;11.68;;;6.20;;
45198;SDS011;30941;46.422;18.772;2023-11-19T05:48:11;9.13;;;5.70;;
45198;SDS011;30941;46.422;18.772;2023-11-19T05:50:37;11.57;;;6.85;;
45198;SDS011;30941;46.422;18.772;2023-11-19T05:53:02;8.88;;;5.60;;
45198;SDS011;30941;46.422;18.772;2023-11-19T05:55:30;8.88;;;5.25;;
45198;SDS011;30941;46.422;18.772;2023-11-19T05:57:56;10.25;;;6.03;;
45198;SDS011;30941;46.422;18.772;2023-11-19T06:00:21;11.65;;;6.35;;
45198;SDS011;30941;46.422;18.772;2023-11-19T06:02:47;9.88;;;6.20;;
45198;SDS011;30941;46.422;18.772;2023-11-19T06:05:12;11.52;;;7.05;;
45198;SDS011;30941;46.422;18.772;2023-11-19T06:07:37;12.10;;;7.18;;
45198;SDS011;30941;46.422;18.772;2023-11-19T06:10:04;12.60;;;7.38;;
45198;SDS011;30941;46.422;18.772;2023-11-19T06:12:31;9.18;;;5.63;;
45198;SDS011;30941;46.422;18.772;2023-11-19T06:14:59;9.45;;;5.88;;
45198;SDS011;30941;46.422;18.772;2023-11-19T06:17:25;8.82;;;5.10;;
45198;SDS011;30941;46.422;18.772;2023-11-19T06:19:50;10.65;;;6.00;;
45198;SDS011;30941;46.422;18.772;2023-11-19T06:22:16;9.55;;;5.25;;
45198;SDS011;30941;46.422;18.772;2023-11-19T06:24:41;7.03;;;5.00;;
45198;SDS011;30941;46.422;18.772;2023-11-19T06:27:06;10.02;;;5.68;;
45198;SDS011;30941;46.422;18.772;2023-11-19T06:29:32;8.55;;;5.60;;
45198;SDS011;30941;46.422;18.772;2023-11-19T06:31:57;9.02;;;5.30;;
45198;SDS011;30941;46.422;18.772;2023-11-19T06:34:22;9.43;;;5.43;;
45198;SDS011;30941;46.422;18.772;2023-11-19T06:36:48;8.73;;;5.25;;
45198;SDS011;30941;46.422;18.772;2023-11-19T06:39:13;8.68;;;4.90;;
45198;SDS011;30941;46.422;18.772;2023-11-19T06:41:44;7.32;;;5.05;;
45198;SDS011;30941;46.422;18.772;2023-11-19T06:44:10;11.10;;;5.60;;
45198;SDS011;30941;46.422;18.772;2023-11-19T06:46:35;8.40;;;5.18;;
45198;SDS011;30941;46.422;18.772;2023-11-19T06:49:00;8.05;;;5.28;;
45198;SDS011;30941;46.422;18.772;2023-11-19T06:51:26;7.30;;;4.97;;
45198;SDS011;30941;46.422;18.772;2023-11-19T06:53:52;8.00;;;5.35;;
45198;SDS011;30941;46.422;18.772;2023-11-19T06:56:21;9.18;;;5.13;;
45198;SDS011;30941;46.422;18.772;2023-11-19T06:58:47;10.15;;;5.25;;
45198;SDS011;30941;46.422;18.772;2023-11-19T07:01:13;10.43;;;6.13;;
45198;SDS011;30941;46.422;18.772;2023-11-19T07:03:40;8.95;;;5.60;;
45198;SDS011;30941;46.422;18.772;2023-11-19T07:06:05;9.65;;;5.93;;
45198;SDS011;30941;46.422;18.772;2023-11-19T07:08:30;8.35;;;5.05;;
45198;SDS011;30941;46.422;18.772;2023-11-19T07:10:56;8.00;;;5.43;;
45198;SDS011;30941;46.422;18.772;2023-11-19T07:13:21;8.75;;;4.90;;
45198;SDS011;30941;46.422;18.772;2023-11-19T07:15:47;7.75;;;5.07;;
45198;SDS011;30941;46.422;18.772;2023-11-19T07:18:12;7.38;;;4.68;;
45198;SDS011;30941;46.422;18.772;2023-11-19T07:20:39;7.57;;;5.43;;
45198;SDS011;30941;46.422;18.772;2023-11-19T07:23:05;7.80;;;4.90;;
45198;SDS011;30941;46.422;18.772;2023-11-19T07:25:31;7.03;;;4.57;;
45198;SDS011;30941;46.422;18.772;2023-11-19T07:27:56;8.82;;;5.57;;
45198;SDS011;30941;46.422;18.772;2023-11-19T07:30:22;7.65;;;5.10;;
45198;SDS011;30941;46.422;18.772;2023-11-19T07:32:47;7.00;;;5.30;;
45198;SDS011;30941;46.422;18.772;2023-11-19T07:35:13;8.85;;;5.25;;
45198;SDS011;30941;46.422;18.772;2023-11-19T07:37:40;6.70;;;5.05;;
45198;SDS011;30941;46.422;18.772;2023-11-19T07:40:06;7.72;;;5.13;;
45198;SDS011;30941;46.422;18.772;2023-11-19T07:42:32;7.40;;;4.47;;
45198;SDS011;30941;46.422;18.772;2023-11-19T07:44:58;6.15;;;4.53;;
45198;SDS011;30941;46.422;18.772;2023-11-19T07:47:23;8.00;;;5.38;;
45198;SDS011;30941;46.422;18.772;2023-11-19T07:49:49;7.10;;;5.22;;
45198;SDS011;30941;46.422;18.772;2023-11-19T07:52:15;8.07;;;4.80;;
45198;SDS011;30941;46.422;18.772;2023-11-19T07:54:41;6.65;;;4.55;;
45198;SDS011;30941;46.422;18.772;2023-11-19T07:57:06;7.32;;;4.30;;
45198;SDS011;30941;46.422;18.772;2023-11-19T07:59:31;7.60;;;4.95;;
45198;SDS011;30941;46.422;18.772;2023-11-19T08:01:57;7.35;;;4.78;;
45198;SDS011;30941;46.422;18.772;2023-11-19T08:04:23;5.93;;;4.53;;
45198;SDS011;30941;46.422;18.772;2023-11-19T08:06:49;5.93;;;4.43;;
45198;SDS011;30941;46.422;18.772;2023-11-19T08:09:14;6.90;;;4.65;;
45198;SDS011;30941;46.422;18.772;2023-11-19T08:11:42;7.65;;;4.93;;
45198;SDS011;30941;46.422;18.772;2023-11-19T08:14:08;7.47;;;3.97;;
45198;SDS011;30941;46.422;18.772;2023-11-19T08:16:33;7.15;;;4.35;;
45198;SDS011;30941;46.422;18.772;2023-11-19T08:18:59;5.95;;;4.60;;
45198;SDS011;30941;46.422;18.772;2023-11-19T08:21:24;7.20;;;5.40;;
45198;SDS011;30941;46.422;18.772;2023-11-19T08:23:49;9.00;;;6.20;;
45198;SDS011;30941;46.422;18.772;2023-11-19T08:26:15;15.98;;;8.48;;
45198;SDS011;30941;46.422;18.772;2023-11-19T08:28:41;11.00;;;7.75;;
45198;SDS011;30941;46.422;18.772;2023-11-19T08:31:06;8.50;;;5.35;;
45198;SDS011;30941;46.422;18.772;2023-11-19T08:33:32;8.43;;;4.80;;
45198;SDS011;30941;46.422;18.772;2023-11-19T08:35:57;6.70;;;4.05;;
45198;SDS011;30941;46.422;18.772;2023-11-19T08:38:23;6.70;;;4.25;;
45198;SDS011;30941;46.422;18.772;2023-11-19T08:40:49;6.80;;;4.30;;
45198;SDS011;30941;46.422;18.772;2023-11-19T08:43:15;7.07;;;4.65;;
45198;SDS011;30941;46.422;18.772;2023-11-19T08:45:41;6.55;;;4.25;;
45198;SDS011;30941;46.422;18.772;2023-11-19T08:48:06;6.30;;;4.63;;
45198;SDS011;30941;46.422;18.772;2023-11-19T08:50:31;6.57;;;4.38;;
45198;SDS011;30941;46.422;18.772;2023-11-19T08:52:57;6.68;;;4.53;;
45198;SDS011;30941;46.422;18.772;2023-11-19T08:55:22;6.43;;;4.47;;
45198;SDS011;30941;46.422;18.772;2023-11-19T08:57:48;7.32;;;4.50;;
45198;SDS011;30941;46.422;18.772;2023-11-19T09:00:13;6.50;;;4.32;;
45198;SDS011;30941;46.422;18.772;2023-11-19T09:02:42;7.45;;;4.85;;
45198;SDS011;30941;46.422;18.772;2023-11-19T09:05:08;8.13;;;5.20;;
45198;SDS011;30941;46.422;18.772;2023-11-19T09:07:33;7.97;;;5.05;;
45198;SDS011;30941;46.422;18.772;2023-11-19T09:09:59;7.63;;;4.95;;
45198;SDS011;30941;46.422;18.772;2023-11-19T09:12:24;7.68;;;4.97;;
45198;SDS011;30941;46.422;18.772;2023-11-19T09:14:49;8.20;;;5.18;;
45198;SDS011;30941;46.422;18.772;2023-11-19T09:17:15;10.32;;;5.75;;
45198;SDS011;30941;46.422;18.772;2023-11-19T09:19:40;9.68;;;6.00;;
45198;SDS011;30941;46.422;18.772;2023-11-19T09:22:06;9.27;;;6.10;;
45198;SDS011;30941;46.422;18.772;2023-11-19T09:24:32;10.75;;;6.43;;
45198;SDS011;30941;46.422;18.772;2023-11-19T09:26:57;10.23;;;6.80;;
45198;SDS011;30941;46.422;18.772;2023-11-19T09:29:23;9.18;;;6.50;;
45198;SDS011;30941;46.422;18.772;2023-11-19T09:31:48;11.35;;;6.78;;
45198;SDS011;30941;46.422;18.772;2023-11-19T09:34:14;14.38;;;6.57;;
45198;SDS011;30941;46.422;18.772;2023-11-19T09:36:39;12.60;;;6.38;;
45198;SDS011;30941;46.422;18.772;2023-11-19T09:39:09;10.25;;;6.32;;
45198;SDS011;30941;46.422;18.772;2023-11-19T09:41:34;7.78;;;5.20;;
45198;SDS011;30941;46.422;18.772;2023-11-19T09:44:00;8.60;;;6.13;;
45198;SDS011;30941;46.422;18.772;2023-11-19T09:46:25;8.90;;;6.85;;
45198;SDS011;30941;46.422;18.772;2023-11-19T09:48:52;9.35;;;6.35;;
45198;SDS011;30941;46.422;18.772;2023-11-19T09:51:19;11.15;;;5.80;;
45198;SDS011;30941;46.422;18.772;2023-11-19T09:53:45;8.95;;;6.13;;
45198;SDS011;30941;46.422;18.772;2023-11-19T09:56:10;8.90;;;5.78;;
45198;SDS011;30941;46.422;18.772;2023-11-19T09:58:36;8.93;;;5.70;;
45198;SDS011;30941;46.422;18.772;2023-11-19T10:01:02;8.45;;;5.40;;
45198;SDS011;30941;46.422;18.772;2023-11-19T10:03:32;8.70;;;5.97;;
45198;SDS011;30941;46.422;18.772;2023-11-19T10:06:00;19.67;;;12.85;;
45198;SDS011;30941;46.422;18.772;2023-11-19T10:08:26;13.70;;;8.60;;
45198;SDS011;30941;46.422;18.772;2023-11-19T10:10:51;8.40;;;5.82;;
45198;SDS011;30941;46.422;18.772;2023-11-19T10:13:17;10.13;;;7.03;;
45198;SDS011;30941;46.422;18.772;2023-11-19T10:15:42;8.63;;;6.13;;
45198;SDS011;30941;46.422;18.772;2023-11-19T10:18:08;7.93;;;5.70;;
45198;SDS011;30941;46.422;18.772;2023-11-19T10:20:37;6.93;;;5.18;;
45198;SDS011;30941;46.422;18.772;2023-11-19T10:23:03;9.93;;;5.88;;
45198;SDS011;30941;46.422;18.772;2023-11-19T10:25:28;7.22;;;5.47;;
45198;SDS011;30941;46.422;18.772;2023-11-19T10:27:55;9.38;;;6.63;;
45198;SDS011;30941;46.422;18.772;2023-11-19T10:30:24;7.50;;;5.20;;
45198;SDS011;30941;46.422;18.772;2023-11-19T10:33:02;7.97;;;5.68;;
45198;SDS011;30941;46.422;18.772;2023-11-19T10:35:35;9.57;;;6.82;;
45198;SDS011;30941;46.422;18.772;2023-11-19T10:38:23;10.80;;;6.45;;
45198;SDS011;30941;46.422;18.772;2023-11-19T10:40:48;7.35;;;5.47;;
45198;SDS011;30941;46.422;18.772;2023-11-19T10:43:14;7.72;;;5.82;;
45198;SDS011;30941;46.422;18.772;2023-11-19T10:45:40;9.73;;;5.70;;
45198;SDS011;30941;46.422;18.772;2023-11-19T10:48:06;7.05;;;5.10;;
45198;SDS011;30941;46.422;18.772;2023-11-19T10:50:35;8.07;;;5.47;;
45198;SDS011;30941;46.422;18.772;2023-11-19T10:53:01;7.43;;;4.95;;
45198;SDS011;30941;46.422;18.772;2023-11-19T10:55:28;7.18;;;5.60;;
45198;SDS011;30941;46.422;18.772;2023-11-19T10:57:58;6.65;;;4.68;;
45198;SDS011;30941;46.422;18.772;2023-11-19T11:00:29;6.88;;;4.95;;
45198;SDS011;30941;46.422;18.772;2023-11-19T11:03:00;7.43;;;5.45;;
45198;SDS011;30941;46.422;18.772;2023-11-19T11:05:27;9.25;;;5.38;;
45198;SDS011;30941;46.422;18.772;2023-11-19T11:07:55;7.75;;;5.78;;
45198;SDS011;30941;46.422;18.772;2023-11-19T11:10:21;8.68;;;5.82;;
45198;SDS011;30941;46.422;18.772;2023-11-19T11:12:51;7.95;;;5.50;;
45198;SDS011;30941;46.422;18.772;2023-11-19T11:15:22;9.90;;;6.00;;
45198;SDS011;30941;46.422;18.772;2023-11-19T11:17:47;10.13;;;6.95;;
45198;SDS011;30941;46.422;18.772;2023-11-19T11:20:13;10.65;;;6.60;;
45198;SDS011;30941;46.422;18.772;2023-11-19T11:22:46;9.45;;;6.60;;
45198;SDS011;30941;46.422;18.772;2023-11-19T11:25:26;9.48;;;6.70;;
45198;SDS011;30941;46.422;18.772;2023-11-19T11:27:57;8.75;;;6.05;;
45198;SDS011;30941;46.422;18.772;2023-11-19T11:33:24;8.27;;;6.13;;
45198;SDS011;30941;46.422;18.772;2023-11-19T11:36:22;8.30;;;6.13;;
45198;SDS011;30941;46.422;18.772;2023-11-19T11:38:48;9.07;;;5.82;;
45198;SDS011;30941;46.422;18.772;2023-11-19T11:41:24;10.07;;;6.25;;
45198;SDS011;30941;46.422;18.772;2023-11-19T11:43:53;10.90;;;6.82;;
45198;SDS011;30941;46.422;18.772;2023-11-19T11:54:08;8.55;;;6.25;;
45198;SDS011;30941;46.422;18.772;2023-11-19T11:56:38;8.38;;;5.50;;
45198;SDS011;30941;46.422;18.772;2023-11-19T11:59:19;7.65;;;5.57;;
45198;SDS011;30941;46.422;18.772;2023-11-19T12:01:57;8.77;;;5.72;;
45198;SDS011;30941;46.422;18.772;2023-11-19T12:04:25;7.93;;;5.82;;
45198;SDS011;30941;46.422;18.772;2023-11-19T12:07:02;6.75;;;5.50;;
45198;SDS011;30941;46.422;18.772;2023-11-19T12:09:32;7.75;;;6.47;;
45198;SDS011;30941;46.422;18.772;2023-11-19T12:12:07;7.95;;;6.20;;
45198;SDS011;30941;46.422;18.772;2023-11-19T12:20:04;8.75;;;5.95;;
45198;SDS011;30941;46.422;18.772;2023-11-19T12:22:34;7.72;;;5.80;;
45198;SDS011;30941;46.422;18.772;2023-11-19T12:25:02;9.40;;;5.65;;
45198;SDS011;30941;46.422;18.772;2023-11-19T12:27:27;8.27;;;6.05;;
45198;SDS011;30941;46.422;18.772;2023-11-19T12:29:53;8.57;;;6.15;;
45198;SDS011;30941;46.422;18.772;2023-11-19T12:32:19;8.23;;;6.20;;
45198;SDS011;30941;46.422;18.772;2023-11-19T12:34:44;8.35;;;6.13;;
45198;SDS011;30941;46.422;18.772;2023-11-19T12:37:10;9.10;;;6.38;;
45198;SDS011;30941;46.422;18.772;2023-11-19T12:39:35;9.02;;;5.95;;
45198;SDS011;30941;46.422;18.772;2023-11-19T12:42:01;8.77;;;6.03;;
45198;SDS011;30941;46.422;18.772;2023-11-19T12:44:26;9.52;;;6.50;;
45198;SDS011;30941;46.422;18.772;2023-11-19T12:47:04;9.23;;;6.20;;
45198;SDS011;30941;46.422;18.772;2023-11-19T12:49:31;7.85;;;5.57;;
45198;SDS011;30941;46.422;18.772;2023-11-19T12:52:00;9.13;;;6.03;;
45198;SDS011;30941;46.422;18.772;2023-11-19T12:54:35;9.63;;;6.30;;
45198;SDS011;30941;46.422;18.772;2023-11-19T12:57:01;10.02;;;6.30;;
45198;SDS011;30941;46.422;18.772;2023-11-19T12:59:27;9.02;;;6.20;;
45198;SDS011;30941;46.422;18.772;2023-11-19T13:01:58;10.27;;;6.13;;
45198;SDS011;30941;46.422;18.772;2023-11-19T13:04:28;8.27;;;5.68;;
45198;SDS011;30941;46.422;18.772;2023-11-19T13:06:55;9.45;;;6.28;;
45198;SDS011;30941;46.422;18.772;2023-11-19T13:09:22;9.23;;;5.82;;
45198;SDS011;30941;46.422;18.772;2023-11-19T13:11:49;8.57;;;5.68;;
45198;SDS011;30941;46.422;18.772;2023-11-19T13:14:14;8.60;;;5.95;;
45198;SDS011;30941;46.422;18.772;2023-11-19T13:16:40;7.68;;;5.75;;
45198;SDS011;30941;46.422;18.772;2023-11-19T13:19:05;9.07;;;5.50;;
45198;SDS011;30941;46.422;18.772;2023-11-19T13:21:31;9.75;;;6.38;;
45198;SDS011;30941;46.422;18.772;2023-11-19T13:23:56;9.32;;;6.68;;
45198;SDS011;30941;46.422;18.772;2023-11-19T13:26:22;9.65;;;5.70;;
45198;SDS011;30941;46.422;18.772;2023-11-19T13:28:47;10.63;;;6.57;;
45198;SDS011;30941;46.422;18.772;2023-11-19T13:31:13;9.07;;;6.07;;
45198;SDS011;30941;46.422;18.772;2023-11-19T13:33:39;11.20;;;6.45;;
45198;SDS011;30941;46.422;18.772;2023-11-19T13:36:04;9.60;;;6.65;;
45198;SDS011;30941;46.422;18.772;2023-11-19T13:38:34;9.48;;;6.40;;
45198;SDS011;30941;46.422;18.772;2023-11-19T13:41:03;10.88;;;6.85;;
45198;SDS011;30941;46.422;18.772;2023-11-19T13:43:29;9.95;;;6.38;;
45198;SDS011;30941;46.422;18.772;2023-11-19T13:45:55;12.52;;;7.40;;
45198;SDS011;30941;46.422;18.772;2023-11-19T13:48:21;10.60;;;6.65;;
45198;SDS011;30941;46.422;18.772;2023-11-19T13:50:47;10.85;;;6.38;;
45198;SDS011;30941;46.422;18.772;2023-11-19T13:53:12;11.23;;;7.35;;
45198;SDS011;30941;46.422;18.772;2023-11-19T13:55:38;11.70;;;7.07;;
45198;SDS011;30941;46.422;18.772;2023-11-19T13:58:03;10.13;;;6.82;;
45198;SDS011;30941;46.422;18.772;2023-11-19T14:00:28;11.85;;;7.82;;
45198;SDS011;30941;46.422;18.772;2023-11-19T14:02:54;11.25;;;7.00;;
45198;SDS011;30941;46.422;18.772;2023-11-19T14:05:19;10.15;;;6.68;;
45198;SDS011;30941;46.422;18.772;2023-11-19T14:07:45;10.73;;;6.95;;
45198;SDS011;30941;46.422;18.772;2023-11-19T14:10:13;16.30;;;7.30;;
45198;SDS011;30941;46.422;18.772;2023-11-19T14:12:40;9.55;;;6.55;;
45198;SDS011;30941;46.422;18.772;2023-11-19T14:15:07;10.15;;;6.90;;
45198;SDS011;30941;46.422;18.772;2023-11-19T14:17:34;10.85;;;6.75;;
45198;SDS011;30941;46.422;18.772;2023-11-19T14:20:00;10.60;;;7.00;;
45198;SDS011;30941;46.422;18.772;2023-11-19T14:22:25;11.13;;;7.22;;
45198;SDS011;30941;46.422;18.772;2023-11-19T14:24:51;11.93;;;6.70;;
45198;SDS011;30941;46.422;18.772;2023-11-19T14:27:16;10.35;;;7.13;;
45198;SDS011;30941;46.422;18.772;2023-11-19T14:29:44;13.20;;;8.25;;
45198;SDS011;30941;46.422;18.772;2023-11-19T14:32:10;27.00;;;14.77;;
45198;SDS011;30941;46.422;18.772;2023-11-19T14:34:35;13.50;;;9.00;;
45198;SDS011;30941;46.422;18.772;2023-11-19T14:37:01;13.93;;;8.70;;
45198;SDS011;30941;46.422;18.772;2023-11-19T14:39:26;11.52;;;8.25;;
45198;SDS011;30941;46.422;18.772;2023-11-19T14:41:52;12.77;;;9.27;;